createdAt,value
2024-05-09T00:01:21.588Z,50317.66
2024-05-09T00:04:23.644Z,50341.69
2024-05-09T00:07:25.410Z,50337.69
2024-05-09T00:10:35.390Z,50341.69
2024-05-09T00:13:40.066Z,50343.69
2024-05-09T00:16:41.773Z,50337.69
2024-05-09T00:19:43.997Z,50327.66
2024-05-09T00:22:45.845Z,50349.69
2024-05-09T00:25:47.907Z,50303.66
2024-05-09T00:28:49.707Z,50355.69
2024-05-09T00:31:51.587Z,50317.66
2024-05-09T00:34:53.377Z,50337.69
2024-05-09T00:37:55.126Z,50299.66
2024-05-09T00:40:56.985Z,50355.69
2024-05-09T00:44:00.265Z,50311.66
2024-05-09T00:47:02.151Z,50323.66
2024-05-09T00:50:05.565Z,50339.69
2024-05-09T00:53:15.637Z,50319.66
2024-05-09T00:56:19.733Z,50345.69
2024-05-09T00:59:23.639Z,50321.66
2024-05-09T01:02:25.560Z,50357.72
2024-05-09T01:05:27.454Z,50329.69
2024-05-09T01:08:29.264Z,50315.66
2024-05-09T01:11:38.019Z,50341.69
2024-05-09T01:14:39.824Z,50327.66
2024-05-09T01:17:42.041Z,50351.69
2024-05-09T01:20:45.328Z,50361.72
2024-05-09T01:23:47.754Z,50317.66
2024-05-09T01:26:50.118Z,50341.69
2024-05-09T01:29:51.841Z,50335.69
2024-05-09T01:32:53.815Z,50305.66
2024-05-09T01:35:55.737Z,50319.66
2024-05-09T01:38:57.552Z,50351.69
2024-05-09T01:41:59.318Z,50329.69
2024-05-09T01:45:01.043Z,50349.69
2024-05-09T01:48:03.452Z,50361.72
2024-05-09T01:51:05.563Z,50335.69
2024-05-09T01:54:07.343Z,50329.69
2024-05-09T01:57:09.097Z,50351.69
2024-05-09T02:00:15.577Z,50359.72
2024-05-09T02:03:18.151Z,50355.69
2024-05-09T02:06:20.217Z,50365.72
2024-05-09T02:09:21.959Z,50329.69
2024-05-09T02:12:23.782Z,50315.66
2024-05-09T02:15:25.783Z,50339.69
2024-05-09T02:18:27.761Z,50333.69
2024-05-09T02:21:34.153Z,50331.69
2024-05-09T02:24:35.891Z,50321.66
2024-05-09T02:27:37.681Z,50353.69
2024-05-09T02:30:41.631Z,50311.66
2024-05-09T02:33:44.509Z,50343.69
2024-05-09T02:36:46.298Z,50325.66
2024-05-09T02:39:48.055Z,50351.69
2024-05-09T02:42:49.799Z,50313.66
2024-05-09T02:45:51.534Z,50349.69
2024-05-09T02:48:53.480Z,50335.69
2024-05-09T02:51:55.265Z,50345.69
2024-05-09T02:54:57.181Z,50331.69
2024-05-09T02:57:58.940Z,50339.69
2024-05-09T03:01:00.814Z,50321.66
2024-05-09T03:04:02.722Z,50349.69
2024-05-09T03:07:04.838Z,50323.66
2024-05-09T03:10:14.546Z,50323.66
2024-05-09T03:13:20.126Z,50333.69
2024-05-09T03:16:21.846Z,50321.66
2024-05-09T03:19:23.650Z,50341.69
2024-05-09T03:22:26.640Z,50341.69
2024-05-09T03:25:28.396Z,50353.69
2024-05-09T03:28:30.155Z,50355.69
2024-05-09T03:31:31.888Z,50341.69
2024-05-09T03:34:33.626Z,50327.66
2024-05-09T03:37:35.435Z,50353.69
2024-05-09T03:40:43.956Z,50321.66
2024-05-09T03:43:45.760Z,50319.66
2024-05-09T03:46:47.542Z,50319.66
2024-05-09T03:49:49.303Z,50331.69
2024-05-09T03:52:51.362Z,50335.69
2024-05-09T03:55:53.221Z,50351.69
2024-05-09T03:58:55.269Z,50331.69
2024-05-09T04:01:57.564Z,50353.69
2024-05-09T04:04:59.374Z,50341.69
2024-05-09T04:08:01.152Z,50305.66
2024-05-09T04:11:03.227Z,50333.69
2024-05-09T04:14:05.085Z,50355.69
2024-05-09T04:17:06.880Z,50331.69
2024-05-09T04:20:12.432Z,50351.69
2024-05-09T04:23:19.948Z,50309.66
2024-05-09T04:26:21.804Z,50345.69
2024-05-09T04:29:23.675Z,50343.69
2024-05-09T04:32:25.566Z,50359.72
2024-05-09T04:35:27.520Z,50353.69
2024-05-09T04:38:30.368Z,50343.69
2024-05-09T04:41:32.232Z,50333.69
2024-05-09T04:44:34.145Z,50341.69
2024-05-09T04:47:36.115Z,50341.69
2024-05-09T04:50:39.456Z,50353.69
2024-05-09T04:53:41.879Z,50337.69
2024-05-09T04:56:43.732Z,50335.69
2024-05-09T04:59:45.475Z,50365.72
2024-05-09T05:02:47.322Z,50337.69
2024-05-09T05:05:49.174Z,50323.66
2024-05-09T05:08:51.113Z,50365.72
2024-05-09T05:11:53.027Z,50347.69
2024-05-09T05:14:54.819Z,50313.66
2024-05-09T05:17:56.706Z,50327.66
2024-05-09T05:20:58.821Z,50355.69
2024-05-09T05:24:00.672Z,50349.69
2024-05-09T05:27:02.452Z,50339.69
2024-05-09T05:30:07.592Z,50345.69
2024-05-09T05:33:13.624Z,50345.69
2024-05-09T05:36:15.485Z,50313.66
2024-05-09T05:39:17.169Z,50327.66
2024-05-09T05:42:18.912Z,50329.69
2024-05-09T05:45:20.648Z,50311.66
2024-05-09T05:48:22.669Z,50331.69
2024-05-09T05:51:24.607Z,50325.66
2024-05-09T05:54:26.385Z,50341.69
2024-05-09T05:57:28.332Z,50331.69
2024-05-09T06:00:37.570Z,50337.69
2024-05-09T06:03:41.530Z,50289.63
2024-05-09T06:06:43.455Z,50317.66
2024-05-09T06:09:47.518Z,50325.66
2024-05-09T06:12:49.925Z,50277.63
2024-05-09T06:15:51.669Z,50269.63
2024-05-09T06:18:53.638Z,50317.66
2024-05-09T06:21:55.588Z,50287.63
2024-05-09T06:24:57.373Z,50293.63
2024-05-09T06:28:02.540Z,50299.66
2024-05-09T06:31:04.436Z,50297.63
2024-05-09T06:34:06.398Z,50325.66
2024-05-09T06:37:08.150Z,50297.63
2024-05-09T06:40:12.516Z,50305.66
2024-05-09T06:43:19.152Z,50265.59
2024-05-09T06:46:21.795Z,50301.66
2024-05-09T06:49:23.620Z,50277.63
2024-05-09T06:52:25.342Z,50269.63
2024-05-09T06:55:27.108Z,50279.63
2024-05-09T06:58:28.851Z,50283.63
2024-05-09T07:01:31.606Z,50255.59
2024-05-09T07:04:36.916Z,50261.59
2024-05-09T07:07:38.651Z,50235.56
2024-05-09T07:10:40.474Z,50231.56
2024-05-09T07:13:42.253Z,50281.63
2024-05-09T07:16:43.999Z,50253.59
2024-05-09T07:19:45.964Z,50241.59
2024-05-09T07:22:47.823Z,50275.63
2024-05-09T07:25:49.777Z,50275.63
2024-05-09T07:28:51.607Z,50229.56
2024-05-09T07:31:53.420Z,50259.59
2024-05-09T07:34:55.237Z,50237.56
2024-05-09T07:37:57.076Z,50229.56
2024-05-09T07:40:58.892Z,50243.59
2024-05-09T07:44:00.828Z,50247.59
2024-05-09T07:53:37.210Z,50243.59
2024-05-09T07:56:35.228Z,50281.63
2024-05-09T07:59:38.189Z,50265.59
2024-05-09T08:02:40.110Z,50259.59
2024-05-09T08:05:42.056Z,50289.63
2024-05-09T08:08:46.272Z,50217.56
2024-05-09T08:11:48.112Z,50217.56
2024-05-09T08:14:50.464Z,50215.56
2024-05-09T08:17:52.315Z,50231.56
2024-05-09T08:20:54.187Z,50213.56
2024-05-09T08:23:56.023Z,50233.56
2024-05-09T08:26:57.727Z,50237.56
2024-05-09T08:29:59.542Z,50249.59
2024-05-09T08:33:01.549Z,50245.59
2024-05-09T08:36:03.531Z,50237.56
2024-05-09T08:39:05.242Z,50251.59
2024-05-09T08:42:08.437Z,50245.59
2024-05-09T08:45:12.716Z,50253.59
2024-05-09T08:48:15.698Z,50247.59
2024-05-09T08:51:19.683Z,50253.59
2024-05-09T08:54:22.794Z,50225.56
2024-05-09T08:57:27.494Z,50245.59
2024-05-09T09:00:36.802Z,50229.56
2024-05-09T09:03:41.495Z,50223.56
2024-05-09T09:06:44.326Z,50213.56
2024-05-09T09:09:48.169Z,50211.56
2024-05-09T09:13:00.101Z,50161.50
2024-05-09T09:16:03.017Z,50209.53
2024-05-09T09:19:05.307Z,50177.50
2024-05-09T09:22:07.408Z,50183.53
2024-05-09T09:25:09.261Z,50183.53
2024-05-09T09:28:12.391Z,50183.53
2024-05-09T09:31:19.273Z,50203.53
2024-05-09T09:34:21.329Z,50181.53
2024-05-09T09:37:28.809Z,50181.53
2024-05-09T09:40:37.533Z,50153.50
2024-05-09T09:43:43.181Z,50153.50
2024-05-09T09:46:45.768Z,50145.47
2024-05-09T09:49:48.832Z,50177.50
2024-05-09T09:52:52.098Z,50153.50
2024-05-09T09:55:56.224Z,50129.47
2024-05-09T09:59:00.206Z,50133.47
2024-05-09T10:02:02.158Z,50105.44
2024-05-09T10:05:04.492Z,50117.44
2024-05-09T10:08:08.212Z,50133.47
2024-05-09T10:11:10.230Z,50143.47
2024-05-09T10:14:12.218Z,50159.50
2024-05-09T10:17:14.122Z,50137.47
2024-05-09T10:20:21.836Z,50097.44
2024-05-09T10:23:32.454Z,50135.47
2024-05-09T10:26:37.897Z,50171.50
2024-05-09T10:29:39.650Z,50127.47
2024-05-09T10:32:41.522Z,50155.50
2024-05-09T10:35:51.755Z,50119.44
2024-05-09T10:38:54.560Z,50109.44
2024-05-09T10:41:56.290Z,50119.44
2024-05-09T10:44:59.316Z,50065.41
2024-05-09T10:48:01.425Z,50085.41
2024-05-09T10:51:04.223Z,50089.44
2024-05-09T10:54:05.959Z,50091.44
2024-05-09T10:57:08.009Z,50089.44
2024-05-09T11:00:15.963Z,50073.41
2024-05-09T11:03:25.571Z,50085.41
2024-05-09T11:06:27.543Z,50079.41
2024-05-09T11:09:29.576Z,50077.41
2024-05-09T11:12:31.401Z,50069.41
2024-05-09T11:15:42.827Z,50067.41
2024-05-09T11:18:52.764Z,50065.41
2024-05-09T11:21:54.771Z,50049.38
2024-05-09T11:24:56.897Z,50043.38
2024-05-09T11:28:02.607Z,50051.38
2024-05-09T11:31:07.889Z,50061.41
2024-05-09T11:34:10.083Z,50051.38
2024-05-09T11:37:13.852Z,50073.41
2024-05-09T11:40:21.525Z,50063.41
2024-05-09T11:43:27.442Z,50073.41
2024-05-09T11:46:29.283Z,50067.41
2024-05-09T11:49:31.092Z,50059.41
2024-05-09T11:52:32.868Z,50045.38
2024-05-09T11:55:36.676Z,50089.44
2024-05-09T11:58:39.602Z,50039.38
2024-05-09T12:01:41.665Z,50041.38
2024-05-09T12:04:43.613Z,50047.38
2024-05-09T12:07:45.465Z,50031.38
2024-05-09T12:10:47.475Z,50045.38
2024-05-09T12:13:49.473Z,50037.38
2024-05-09T12:16:51.312Z,50039.38
2024-05-09T12:19:53.084Z,50009.34
2024-05-09T12:22:54.789Z,50001.34
2024-05-09T12:25:56.621Z,50009.34
2024-05-09T12:28:58.372Z,50001.34
2024-05-09T12:32:00.091Z,49997.34
2024-05-09T12:35:02.018Z,49977.31
2024-05-09T12:38:04.292Z,50001.34
2024-05-09T12:41:06.077Z,50019.34
2024-05-09T12:44:07.864Z,49989.31
2024-05-09T12:47:09.591Z,50027.38
2024-05-09T12:50:21.831Z,49973.31
2024-05-09T12:53:27.089Z,49981.31
2024-05-09T12:56:28.968Z,49963.31
2024-05-09T12:59:30.748Z,49985.31
2024-05-09T13:02:32.536Z,50023.34
2024-05-09T13:05:34.771Z,50017.34
2024-05-09T13:08:36.729Z,50007.34
2024-05-09T13:11:38.549Z,49977.31
2024-05-09T13:14:40.392Z,49995.34
2024-05-09T13:17:42.280Z,49983.31
2024-05-09T13:20:44.403Z,49985.31
2024-05-09T13:23:46.158Z,50003.34
2024-05-09T13:26:47.940Z,49995.34
2024-05-09T13:29:49.801Z,50023.34
2024-05-09T13:32:51.665Z,50035.38
2024-05-09T13:35:53.470Z,50013.34
2024-05-09T13:38:56.560Z,50011.34
2024-05-09T13:41:58.325Z,50009.34
2024-05-09T13:45:00.124Z,50021.34
2024-05-09T13:48:03.976Z,50039.38
2024-05-09T13:51:06.091Z,50005.34
2024-05-09T13:54:07.977Z,50033.38
2024-05-09T13:57:09.820Z,50055.38
2024-05-09T14:00:22.953Z,50031.38
2024-05-09T14:03:34.391Z,49997.34
2024-05-09T14:06:37.058Z,50005.34
2024-05-09T14:09:38.912Z,50021.34
2024-05-09T14:12:40.822Z,50033.38
2024-05-09T14:15:42.638Z,50033.38
2024-05-09T14:18:44.506Z,50033.38
2024-05-09T14:21:46.324Z,50035.38
2024-05-09T14:24:48.078Z,50045.38
2024-05-09T14:27:50.130Z,50027.38
2024-05-09T14:30:51.987Z,50013.34
2024-05-09T14:33:53.862Z,50061.41
2024-05-09T14:36:55.802Z,49995.34
2024-05-09T14:39:58.319Z,50017.34
2024-05-09T14:43:03.150Z,50033.38
2024-05-09T14:46:05.351Z,50009.34
2024-05-09T14:49:09.807Z,50015.34
2024-05-09T14:52:12.548Z,50031.38
2024-05-09T14:55:14.572Z,50007.34
2024-05-09T14:58:16.835Z,49989.31
2024-05-09T15:01:20.607Z,50005.34
2024-05-09T15:04:22.492Z,49997.34
2024-05-09T15:07:24.436Z,49997.34
2024-05-09T15:10:34.079Z,50037.38
2024-05-09T15:13:38.212Z,49993.31
2024-05-09T15:16:39.965Z,49997.34
2024-05-09T15:19:41.758Z,49977.31
2024-05-09T15:22:43.546Z,50011.34
2024-05-09T15:25:45.414Z,50007.34
2024-05-09T15:28:47.322Z,49979.31
2024-05-09T15:31:49.103Z,50029.38
2024-05-09T15:34:50.878Z,49991.31
2024-05-09T15:37:52.737Z,50007.34
2024-05-09T15:40:54.651Z,49995.34
2024-05-09T15:43:56.525Z,49975.31
2024-05-09T15:46:58.267Z,50009.34
2024-05-09T15:50:00.450Z,50013.34
2024-05-09T15:53:02.318Z,50025.34
2024-05-09T15:56:04.359Z,50037.38
2024-05-09T15:59:06.495Z,50025.34
2024-05-09T16:02:11.548Z,50049.38
2024-05-09T16:05:13.684Z,49989.31
2024-05-09T16:08:16.218Z,50033.38
2024-05-09T16:11:20.148Z,50001.34
2024-05-09T16:14:22.071Z,50039.38
2024-05-09T16:17:23.918Z,50053.38
2024-05-09T16:20:34.816Z,50055.38
2024-05-09T16:23:41.719Z,50053.38
2024-05-09T16:26:43.747Z,50039.38
2024-05-09T16:29:45.675Z,50045.38
2024-05-09T16:32:48.704Z,50049.38
2024-05-09T16:35:50.698Z,50117.44
2024-05-09T16:38:52.449Z,50125.47
2024-05-09T16:41:54.194Z,50185.53
2024-05-09T16:44:55.940Z,50201.53
2024-05-09T16:47:59.059Z,50209.53
2024-05-09T16:51:01.059Z,50201.53
2024-05-09T16:54:02.786Z,50229.56
2024-05-09T16:57:04.907Z,50221.56
2024-05-09T17:00:14.461Z,50251.59
2024-05-09T17:03:21.253Z,50229.56
2024-05-09T17:06:23.047Z,50261.59
2024-05-09T17:09:24.738Z,50249.59
2024-05-09T17:12:26.682Z,50243.59
2024-05-09T17:15:28.396Z,50257.59
2024-05-09T17:18:30.178Z,50271.63
2024-05-09T17:21:32.002Z,50263.59
2024-05-09T17:24:33.787Z,50275.63
2024-05-09T17:27:35.634Z,50277.63
2024-05-09T17:30:39.728Z,50265.59
2024-05-09T17:33:43.133Z,50263.59
2024-05-09T17:36:45.170Z,50277.63
2024-05-09T17:39:47.014Z,50271.63
2024-05-09T17:42:48.799Z,50277.63
2024-05-09T17:45:50.576Z,50293.63
2024-05-09T17:48:52.568Z,50281.63
2024-05-09T17:51:55.398Z,50283.63
2024-05-09T17:54:57.202Z,50257.59
2024-05-09T17:57:59.135Z,50291.63
2024-05-09T18:01:01.182Z,50293.63
2024-05-09T18:04:03.270Z,50309.66
2024-05-09T18:07:05.521Z,50289.63
2024-05-09T18:10:15.928Z,50301.66
2024-05-09T18:13:23.851Z,50297.63
2024-05-09T18:16:26.235Z,50291.63
2024-05-09T18:19:28.524Z,50283.63
2024-05-09T18:22:30.387Z,50245.59
2024-05-09T18:25:32.189Z,50259.59
2024-05-09T18:28:34.299Z,50277.63
2024-05-09T18:31:36.786Z,50305.66
2024-05-09T18:34:38.628Z,50259.59
2024-05-09T18:37:41.211Z,50271.63
2024-05-09T18:40:45.102Z,50293.63
2024-05-09T18:43:50.863Z,50285.63
2024-05-09T18:46:53.159Z,50261.59
2024-05-09T18:49:55.017Z,50291.63
2024-05-09T18:52:56.802Z,50265.59
2024-05-09T18:55:58.730Z,50269.63
2024-05-09T18:59:00.465Z,50297.63
2024-05-09T19:02:02.713Z,50261.59
2024-05-09T19:05:04.833Z,50273.63
2024-05-09T19:08:07.914Z,50271.63
2024-05-09T19:11:09.762Z,50247.59
2024-05-09T19:14:11.556Z,50285.63
2024-05-09T19:17:13.442Z,50265.59
2024-05-09T19:20:24.892Z,50279.63
2024-05-09T19:23:32.562Z,50267.59
2024-05-09T19:26:34.815Z,50277.63
2024-05-09T19:29:36.557Z,50279.63
2024-05-09T19:32:38.821Z,50281.63
2024-05-09T19:35:40.828Z,50269.63
2024-05-09T19:38:42.617Z,50293.63
2024-05-09T19:41:44.466Z,50269.63
2024-05-09T19:44:46.187Z,50293.63
2024-05-09T19:47:48.171Z,50265.59
2024-05-09T19:50:52.899Z,50265.59
2024-05-09T19:53:55.423Z,50269.63
2024-05-09T19:56:57.209Z,50295.63
2024-05-09T19:59:59.017Z,50263.59
2024-05-09T20:03:00.901Z,50265.59
2024-05-09T20:06:03.032Z,50269.63
2024-05-09T20:09:05.881Z,50257.59
2024-05-09T20:12:07.696Z,50269.63
2024-05-09T20:15:09.489Z,50261.59
2024-05-09T20:18:11.777Z,50287.63
2024-05-09T20:21:13.764Z,50299.66
2024-05-09T20:24:15.610Z,50279.63
2024-05-09T20:27:17.893Z,50255.59
2024-05-09T20:30:28.713Z,50239.56
2024-05-09T20:33:34.183Z,50255.59
2024-05-09T20:36:35.951Z,50287.63
2024-05-09T20:39:37.858Z,50289.63
2024-05-09T20:42:39.648Z,50249.59
2024-05-09T20:45:41.668Z,50285.63
2024-05-09T20:48:43.616Z,50277.63
2024-05-09T20:51:45.506Z,50269.63
2024-05-09T20:54:47.316Z,50275.63
2024-05-09T20:57:49.193Z,50271.63
2024-05-09T21:00:51.109Z,50257.59
2024-05-09T21:03:53.076Z,50253.59
2024-05-09T21:06:54.962Z,50269.63
2024-05-09T21:09:56.830Z,50257.59
2024-05-09T21:12:58.667Z,50265.59
2024-05-09T21:16:00.634Z,50255.59
2024-05-09T21:19:02.442Z,50275.63
2024-05-09T21:22:04.376Z,50269.63
2024-05-09T21:25:06.280Z,50281.63
2024-05-09T21:28:08.151Z,50253.59
2024-05-09T21:31:09.964Z,50275.63
2024-05-09T21:34:11.742Z,50289.63
2024-05-09T21:37:13.621Z,50275.63
2024-05-09T21:40:24.343Z,50293.63
2024-05-09T21:43:33.450Z,50279.63
2024-05-09T21:46:35.319Z,50281.63
2024-05-09T21:49:37.101Z,50285.63
2024-05-09T21:52:38.852Z,50271.63
2024-05-09T21:55:43.727Z,50281.63
2024-05-09T21:58:45.480Z,50277.63
2024-05-09T22:01:47.448Z,50277.63
2024-05-09T22:04:49.456Z,50253.59
2024-05-09T22:07:51.294Z,50255.59
2024-05-09T22:10:53.250Z,50255.59
2024-05-09T22:13:55.060Z,50245.59
2024-05-09T22:16:56.825Z,50283.63
2024-05-09T22:19:58.600Z,50277.63
2024-05-09T22:23:00.450Z,50261.59
2024-05-09T22:26:02.197Z,50283.63
2024-05-09T22:29:05.102Z,50261.59
2024-05-09T22:32:07.379Z,50295.63
2024-05-09T22:35:10.680Z,50277.63
2024-05-09T22:38:12.478Z,50269.63
2024-05-09T22:41:14.228Z,50309.66
2024-05-09T22:44:15.948Z,50289.63
2024-05-09T22:47:17.755Z,50289.63
2024-05-09T22:50:26.685Z,50257.59
2024-05-09T22:53:32.365Z,50299.66
2024-05-09T22:56:34.098Z,50267.59
2024-05-09T22:59:35.811Z,50281.63
2024-05-09T23:02:38.109Z,50277.63
2024-05-09T23:05:39.971Z,50245.59
2024-05-09T23:08:41.775Z,50301.66
2024-05-09T23:11:45.099Z,50299.66
2024-05-09T23:14:47.070Z,50271.63
2024-05-09T23:17:49.085Z,50285.63
2024-05-09T23:20:51.893Z,50283.63
2024-05-09T23:23:53.797Z,50285.63
2024-05-09T23:26:55.756Z,50277.63
2024-05-09T23:29:57.720Z,50279.63
2024-05-09T23:32:59.720Z,50279.63
2024-05-09T23:36:01.600Z,50265.59
2024-05-09T23:39:03.420Z,50265.59
2024-05-09T23:42:05.524Z,50257.59
2024-05-09T23:45:07.996Z,50293.63
2024-05-09T23:48:10.265Z,50281.63
2024-05-09T23:51:12.104Z,50269.63
2024-05-09T23:54:14.093Z,50273.63
2024-05-09T23:57:15.824Z,50283.63
